San Francisco, California
Traffic Map
Current Weather Conditions
San Francisco, California
Few Clouds
Few Clouds
56°
Feels Like: 56°
Wind Chill: 56° Ceiling: Unl
Heat Index: 56° Visibility: 10mi
Dew Point: 51° Wind: 10mph
Humidity: 84% Direction: 280° (W)
Pressure: 29.91in Gusts: 0mph
Raw Report DataKSFO 260756Z 28009KT 10SM FEW004 13/11 A2991 RMK AO2 SLP126 T01330106 402220122
Traffic Incident Summary
Active as of:
Severity:
Category:
InformationThere was an issue retrieving the traffic information for this location. Please try a different location or try again shortly.
Advertisements
Track Severe Weather on mobile